Time;durP1;ratioP1;P1;durP2;ratioP2;P2;SDS_P1;SDS_P2;PMS_P1;PMS_P2;Temp;Humidity;BMP_temperature;BMP_pressure;BME280_temperature;BME280_humidity;BME280_pressure;Samples;Min_cycle;Max_cycle;Signal;HPM_P1;HPM_P2
2021/12/23 00:01:56;;;;;;;27.85;18.25;;;;;;;;;;4918230;28;20187;-82
2021/12/23 00:04:22;;;;;;;26.00;14.63;;;;;;;;;;4911716;29;20036;-82
2021/12/23 00:06:49;;;;;;;28.02;17.17;;;;;;;;;;4897996;28;20028;-82
2021/12/23 00:09:16;;;;;;;28.75;16.65;;;;;;;;;;4892552;29;20674;-82
2021/12/23 00:11:42;;;;;;;34.17;19.05;;;;;;;;;;4914487;29;20457;-82
2021/12/23 00:14:10;;;;;;;;;;;;;;;;;;4908517;29;21253;-81
2021/12/23 00:16:46;;;;;;;33.40;19.63;;;;;;;;;;4909924;28;19919;-83
2021/12/23 00:19:35;;;;;;;35.83;20.27;;;;;;;;;;4920845;29;20041;-83
2021/12/23 00:24:47;;;;;;;32.45;18.73;;;;;;;;;;4894351;29;20108;-80
2021/12/23 00:27:14;;;;;;;36.10;20.60;;;;;;;;;;4913047;29;20037;-81
2021/12/23 00:29:40;;;;;;;29.23;17.23;;;;;;;;;;4913185;29;20028;-82
2021/12/23 00:32:08;;;;;;;29.63;16.67;;;;;;;;;;4921502;28;20056;-82
2021/12/23 00:34:38;;;;;;;33.50;17.58;;;;;;;;;;4894261;29;20044;-81
2021/12/23 00:37:09;;;;;;;31.08;17.60;;;;;;;;;;4882835;28;20210;-83
2021/12/23 00:39:35;;;;;;;23.48;14.68;;;;;;;;;;4889528;29;20044;-81
2021/12/23 00:42:07;;;;;;;32.63;19.30;;;;;;;;;;4885754;29;20065;-83
2021/12/23 00:44:35;;;;;;;27.83;18.13;;;;;;;;;;4879322;29;20037;-82
2021/12/23 00:47:01;;;;;;;29.48;17.90;;;;;;;;;;4895680;28;20128;-82
2021/12/23 00:49:27;;;;;;;32.83;19.60;;;;;;;;;;4889956;29;20430;-82
2021/12/23 00:51:54;;;;;;;28.77;16.95;;;;;;;;;;4887713;29;20040;-82
2021/12/23 00:54:20;;;;;;;30.60;17.95;;;;;;;;;;4904650;29;20763;-82
2021/12/23 00:56:49;;;;;;;30.33;18.67;;;;;;;;;;4898384;29;20037;-82
2021/12/23 00:59:15;;;;;;;33.58;19.20;;;;;;;;;;4887714;29;20033;-80
2021/12/23 01:01:43;;;;;;;25.98;15.00;;;;;;;;;;4881289;29;20056;-82
2021/12/23 01:04:09;;;;;;;33.67;19.08;;;;;;;;;;4884386;28;20040;-82
2021/12/23 01:06:35;;;;;;;29.63;18.10;;;;;;;;;;4881420;29;20528;-81
2021/12/23 01:09:01;;;;;;;30.58;18.58;;;;;;;;;;4888223;29;20485;-83
2021/12/23 01:11:28;;;;;;;30.23;18.90;;;;;;;;;;4901369;29;20028;-83
2021/12/23 01:14:03;;;;;;;;;;;;;;;;;;4876843;29;20033;-82
2021/12/23 01:16:48;;;;;;;25.15;17.98;;;;;;;;;;4886764;29;19975;-83
2021/12/23 01:19:15;;;;;;;27.75;17.05;;;;;;;;;;4887080;29;20115;-81
2021/12/23 01:21:41;;;;;;;31.58;18.48;;;;;;;;;;4906218;29;20147;-81
2021/12/23 01:24:09;;;;;;;27.88;17.67;;;;;;;;;;4895696;28;20040;-81
2021/12/23 01:26:36;;;;;;;28.13;18.13;;;;;;;;;;4885967;29;20043;-81
2021/12/23 01:29:02;;;;;;;33.80;19.85;;;;;;;;;;4886914;29;20048;-82
2021/12/23 01:31:28;;;;;;;;;;;;;;;;;;4902081;29;20143;-82
2021/12/23 01:33:54;;;;;;;27.08;16.60;;;;;;;;;;4899033;28;20399;-82
2021/12/23 01:36:22;;;;;;;23.08;15.02;;;;;;;;;;4899441;29;20112;-82
2021/12/23 01:38:48;;;;;;;28.42;18.75;;;;;;;;;;4909811;28;20028;-81
2021/12/23 01:41:15;;;;;;;26.45;16.75;;;;;;;;;;4906914;29;20465;-81
2021/12/23 01:43:41;;;;;;;27.40;17.52;;;;;;;;;;4901645;28;20037;-82
2021/12/23 01:46:08;;;;;;;22.88;15.55;;;;;;;;;;4908331;29;20611;-82
2021/12/23 01:48:34;;;;;;;24.08;14.38;;;;;;;;;;4875805;28;20143;-82
2021/12/23 01:51:01;;;;;;;19.75;13.65;;;;;;;;;;4881700;29;20080;-81
2021/12/23 01:53:27;;;;;;;27.52;18.25;;;;;;;;;;4899001;29;20040;-81
2021/12/23 01:55:53;;;;;;;25.35;16.63;;;;;;;;;;4891897;29;20037;-81
2021/12/23 01:58:20;;;;;;;24.00;15.55;;;;;;;;;;4892321;28;20033;-80
2021/12/23 02:00:49;;;;;;;24.90;14.88;;;;;;;;;;4910023;29;20070;-82
2021/12/23 02:03:16;;;;;;;23.55;14.95;;;;;;;;;;4881726;29;20143;-81
2021/12/23 02:05:43;;;;;;;26.48;17.77;;;;;;;;;;4883043;29;20037;-82
2021/12/23 02:08:09;;;;;;;27.52;16.63;;;;;;;;;;4887414;29;20151;-81
2021/12/23 02:10:40;;;;;;;24.05;15.43;;;;;;;;;;4899170;29;20511;-82
2021/12/23 02:13:06;;;;;;;25.33;16.92;;;;;;;;;;4883243;29;20035;-82
2021/12/23 02:15:32;;;;;;;;;;;;;;;;;;4885852;29;20052;-82
2021/12/23 02:18:00;;;;;;;20.42;13.63;;;;;;;;;;4902251;28;19942;-81
2021/12/23 02:20:31;;;;;;;24.10;14.52;;;;;;;;;;4872093;29;20036;-83
2021/12/23 02:22:59;;;;;;;22.05;13.93;;;;;;;;;;4907376;29;20396;-82
2021/12/23 02:25:28;;;;;;;26.52;15.27;;;;;;;;;;4894627;29;20029;-82
2021/12/23 02:27:57;;;;;;;25.77;14.68;;;;;;;;;;4889061;28;20040;-82
2021/12/23 02:30:27;;;;;;;22.23;13.75;;;;;;;;;;4896538;29;20108;-81
2021/12/23 02:32:54;;;;;;;23.73;15.27;;;;;;;;;;4887888;29;20060;-82
2021/12/23 02:35:24;;;;;;;25.55;17.50;;;;;;;;;;4874521;29;20036;-83
2021/12/23 02:37:51;;;;;;;25.67;16.63;;;;;;;;;;4884241;28;20109;-82
2021/12/23 02:40:48;;;;;;;29.17;16.30;;;;;;;;;;4883185;29;20029;-79
2021/12/23 02:43:24;;;;;;;26.70;17.13;;;;;;;;;;4815665;29;20053;-82
2021/12/23 02:45:55;;;;;;;19.77;13.20;;;;;;;;;;4814873;29;20079;-83
2021/12/23 02:48:21;;;;;;;18.65;11.65;;;;;;;;;;4820013;29;20296;-81
2021/12/23 02:50:50;;;;;;;25.80;15.52;;;;;;;;;;4820468;29;20041;-81
2021/12/23 02:53:16;;;;;;;25.75;15.30;;;;;;;;;;4825778;29;20573;-81
2021/12/23 02:55:43;;;;;;;25.60;17.17;;;;;;;;;;4807682;29;20210;-81
2021/12/23 02:58:12;;;;;;;23.67;14.95;;;;;;;;;;4836432;29;20087;-81
2021/12/23 03:00:41;;;;;;;30.38;17.23;;;;;;;;;;4813732;29;20061;-81
2021/12/23 03:03:10;;;;;;;23.50;13.35;;;;;;;;;;4829516;29;20049;-81
2021/12/23 03:05:36;;;;;;;21.80;13.27;;;;;;;;;;4817448;29;20062;-81
2021/12/23 03:08:04;;;;;;;20.67;12.27;;;;;;;;;;4823697;29;20026;-81
2021/12/23 03:10:32;;;;;;;26.27;17.10;;;;;;;;;;4817683;29;20038;-81
2021/12/23 03:13:01;;;;;;;26.42;16.38;;;;;;;;;;4838971;29;20110;-81
2021/12/23 03:15:30;;;;;;;21.33;13.27;;;;;;;;;;4830165;29;20042;-81
2021/12/23 03:17:57;;;;;;;27.98;17.42;;;;;;;;;;4826854;29;20034;-81
2021/12/23 03:20:26;;;;;;;26.67;15.50;;;;;;;;;;4872617;29;20037;-82
2021/12/23 03:22:53;;;;;;;28.05;17.30;;;;;;;;;;4874976;29;20043;-81
2021/12/23 03:25:20;;;;;;;28.83;18.15;;;;;;;;;;4915790;29;20036;-82
2021/12/23 03:27:46;;;;;;;24.85;14.82;;;;;;;;;;4893273;29;20062;-81
2021/12/23 03:30:14;;;;;;;31.17;18.45;;;;;;;;;;4900250;28;20064;-82
2021/12/23 03:32:42;;;;;;;30.02;17.92;;;;;;;;;;4887995;29;20056;-81
2021/12/23 03:35:09;;;;;;;29.40;15.65;;;;;;;;;;4905352;28;20794;-82
2021/12/23 03:37:37;;;;;;;26.67;14.20;;;;;;;;;;4904015;29;20485;-82
2021/12/23 03:40:04;;;;;;;28.70;17.25;;;;;;;;;;4891278;29;20036;-82
2021/12/23 03:42:31;;;;;;;26.00;15.57;;;;;;;;;;4880873;29;20043;-82
2021/12/23 03:44:58;;;;;;;29.33;17.00;;;;;;;;;;4899603;28;20033;-82
2021/12/23 03:47:25;;;;;;;27.00;15.30;;;;;;;;;;4902329;29;20115;-82
2021/12/23 03:49:54;;;;;;;29.35;17.30;;;;;;;;;;4892231;28;20076;-82
2021/12/23 03:52:20;;;;;;;20.67;12.38;;;;;;;;;;4900308;29;20462;-82
2021/12/23 03:54:46;;;;;;;26.48;14.43;;;;;;;;;;4913520;28;20043;-82
2021/12/23 03:57:13;;;;;;;26.90;16.52;;;;;;;;;;4887220;29;20024;-82
2021/12/23 03:59:40;;;;;;;23.38;14.50;;;;;;;;;;4889601;29;20040;-82
2021/12/23 04:02:07;;;;;;;20.08;13.30;;;;;;;;;;4907748;29;20564;-82
2021/12/23 04:04:35;;;;;;;26.50;16.25;;;;;;;;;;4901357;29;20524;-82
2021/12/23 04:07:03;;;;;;;25.15;16.10;;;;;;;;;;4890469;29;20513;-82
2021/12/23 04:09:29;;;;;;;22.20;14.02;;;;;;;;;;4897553;28;20064;-80
2021/12/23 04:11:55;;;;;;;;;;;;;;;;;;4906348;29;20033;-82
2021/12/23 04:14:24;;;;;;;23.88;15.23;;;;;;;;;;4900452;28;19919;-81
2021/12/23 04:16:51;;;;;;;25.27;16.15;;;;;;;;;;4907793;29;20087;-81
2021/12/23 04:19:17;;;;;;;24.48;15.48;;;;;;;;;;4908025;28;20033;-82
2021/12/23 04:21:44;;;;;;;26.95;16.90;;;;;;;;;;4894048;29;20390;-82
2021/12/23 04:24:13;;;;;;;23.75;15.65;;;;;;;;;;4905662;29;20115;-83
2021/12/23 04:26:41;;;;;;;22.25;14.25;;;;;;;;;;4875830;29;20040;-82
2021/12/23 04:29:09;;;;;;;24.88;15.98;;;;;;;;;;4888937;29;20111;-81
2021/12/23 04:31:35;;;;;;;25.55;15.57;;;;;;;;;;4888059;29;20135;-82
2021/12/23 04:34:02;;;;;;;25.58;16.80;;;;;;;;;;4898089;29;20136;-81
2021/12/23 04:36:30;;;;;;;28.42;16.58;;;;;;;;;;4915139;29;20068;-81
2021/12/23 04:38:59;;;;;;;23.58;15.07;;;;;;;;;;4899715;28;20120;-82
2021/12/23 04:41:27;;;;;;;29.95;17.75;;;;;;;;;;4900755;29;20549;-82
2021/12/23 04:43:55;;;;;;;31.48;17.17;;;;;;;;;;4884959;29;20088;-82
2021/12/23 04:46:24;;;;;;;25.27;16.77;;;;;;;;;;4880279;29;20504;-81
2021/12/23 04:48:51;;;;;;;29.27;18.52;;;;;;;;;;4907304;28;20131;-82
2021/12/23 04:51:18;;;;;;;;;;;;;;;;;;4897419;29;20187;-82
2021/12/23 04:53:46;;;;;;;28.02;18.08;;;;;;;;;;4892613;28;20767;-82
2021/12/23 04:56:33;;;;;;;34.38;17.17;;;;;;;;;;4892117;29;20545;-82
2021/12/23 04:59:01;;;;;;;26.23;15.60;;;;;;;;;;4891262;29;20052;-82
2021/12/23 05:01:30;;;;;;;28.70;17.90;;;;;;;;;;4883417;29;20032;-83
2021/12/23 05:03:56;;;;;;;31.45;18.17;;;;;;;;;;4883176;29;20032;-82
2021/12/23 05:06:24;;;;;;;29.55;16.75;;;;;;;;;;4908154;29;20032;-83
2021/12/23 05:08:53;;;;;;;27.90;18.98;;;;;;;;;;4893681;28;20036;-81
2021/12/23 05:11:19;;;;;;;29.35;17.88;;;;;;;;;;4889685;29;20029;-82
2021/12/23 05:13:47;;;;;;;25.05;15.25;;;;;;;;;;4882244;29;20127;-82
2021/12/23 05:16:14;;;;;;;26.02;17.75;;;;;;;;;;4891272;29;20504;-82
2021/12/23 05:18:42;;;;;;;28.35;16.58;;;;;;;;;;4893374;28;20045;-82
2021/12/23 05:21:08;;;;;;;26.48;18.02;;;;;;;;;;4890865;29;20128;-82
2021/12/23 05:23:34;;;;;;;;;;;;;;;;;;4907753;28;20033;-82
2021/12/23 05:26:05;;;;;;;25.10;16.38;;;;;;;;;;4896072;29;19912;-82
2021/12/23 05:28:32;;;;;;;27.95;17.38;;;;;;;;;;4903497;29;20044;-81
2021/12/23 05:30:59;;;;;;;29.15;18.77;;;;;;;;;;4877032;29;20413;-82
2021/12/23 05:33:28;;;;;;;30.65;17.70;;;;;;;;;;4892273;28;20048;-82
2021/12/23 05:35:55;;;;;;;25.50;15.88;;;;;;;;;;4889906;29;20037;-81
2021/12/23 05:38:24;;;;;;;27.58;16.58;;;;;;;;;;4901930;29;20965;-83
2021/12/23 05:40:50;;;;;;;22.92;13.05;;;;;;;;;;4901753;29;20049;-82
2021/12/23 05:43:17;;;;;;;27.92;16.63;;;;;;;;;;4893623;29;20060;-81
2021/12/23 05:45:45;;;;;;;33.95;18.30;;;;;;;;;;4881030;29;20041;-81
2021/12/23 05:48:11;;;;;;;25.55;16.77;;;;;;;;;;4875844;29;20029;-83
2021/12/23 05:50:40;;;;;;;26.92;16.92;;;;;;;;;;4895406;29;20037;-82
2021/12/23 05:53:09;;;;;;;30.52;17.98;;;;;;;;;;4883038;29;20032;-81
2021/12/23 05:55:37;;;;;;;26.58;17.30;;;;;;;;;;4895599;29;20104;-82
2021/12/23 05:58:04;;;;;;;34.45;18.23;;;;;;;;;;4903469;29;20416;-81
2021/12/23 06:00:34;;;;;;;25.98;15.70;;;;;;;;;;4901949;29;20037;-82
2021/12/23 06:03:02;;;;;;;29.33;17.05;;;;;;;;;;4897236;29;20029;-82
2021/12/23 06:05:30;;;;;;;25.63;16.20;;;;;;;;;;4889011;29;20616;-81
2021/12/23 06:07:57;;;;;;;28.25;16.13;;;;;;;;;;4888632;29;20393;-82
2021/12/23 06:10:25;;;;;;;31.67;16.42;;;;;;;;;;4900059;29;20040;-81
2021/12/23 06:12:52;;;;;;;23.75;14.52;;;;;;;;;;4883586;29;20512;-82
2021/12/23 06:15:20;;;;;;;26.67;15.55;;;;;;;;;;4883206;29;20083;-81
2021/12/23 06:17:50;;;;;;;25.02;16.15;;;;;;;;;;4899287;29;20407;-81
2021/12/23 06:20:16;;;;;;;24.95;16.10;;;;;;;;;;4906056;29;20077;-81
2021/12/23 06:22:42;;;;;;;24.67;15.77;;;;;;;;;;4899084;29;20706;-80
2021/12/23 06:25:12;;;;;;;23.45;14.82;;;;;;;;;;4905248;28;20036;-81
2021/12/23 06:27:39;;;;;;;27.45;16.98;;;;;;;;;;4877414;29;20033;-82
2021/12/23 06:30:21;;;;;;;27.33;17.88;;;;;;;;;;4885996;28;20189;-82
2021/12/23 06:32:49;;;;;;;27.45;17.65;;;;;;;;;;4886077;29;20085;-82
2021/12/23 06:35:18;;;;;;;29.15;16.75;;;;;;;;;;4874002;29;20454;-82
2021/12/23 06:37:49;;;;;;;23.70;15.88;;;;;;;;;;4874700;29;20416;-81
2021/12/23 06:40:16;;;;;;;24.27;14.30;;;;;;;;;;4874923;29;20542;-82
2021/12/23 06:42:52;;;;;;;26.80;16.75;;;;;;;;;;4879137;28;20045;-80
2021/12/23 06:45:18;;;;;;;24.67;15.45;;;;;;;;;;4890949;29;20115;-82
2021/12/23 06:47:46;;;;;;;26.50;17.42;;;;;;;;;;4893397;29;20045;-82
2021/12/23 06:50:12;;;;;;;26.85;17.08;;;;;;;;;;4908603;29;20040;-83
2021/12/23 06:52:39;;;;;;;23.30;15.13;;;;;;;;;;4902568;29;20041;-82
2021/12/23 06:55:08;;;;;;;26.23;15.63;;;;;;;;;;4891969;28;20457;-83
2021/12/23 06:57:35;;;;;;;23.50;14.10;;;;;;;;;;4915527;29;20613;-82
2021/12/23 07:00:04;;;;;;;23.75;14.35;;;;;;;;;;4898505;29;20064;-83
2021/12/23 07:02:31;;;;;;;23.65;15.70;;;;;;;;;;4888444;29;20086;-82
2021/12/23 07:04:58;;;;;;;24.40;15.82;;;;;;;;;;4891932;29;20041;-82
2021/12/23 07:07:26;;;;;;;26.15;16.05;;;;;;;;;;4890029;29;20053;-82
2021/12/23 07:09:57;;;;;;;21.23;13.18;;;;;;;;;;4898443;29;20092;-82
2021/12/23 07:12:25;;;;;;;27.85;15.35;;;;;;;;;;4905018;29;20037;-82
2021/12/23 07:14:54;;;;;;;22.98;14.73;;;;;;;;;;4905971;28;20064;-83
2021/12/23 07:17:22;;;;;;;19.25;12.23;;;;;;;;;;4895326;29;20028;-83
2021/12/23 07:19:49;;;;;;;26.77;14.85;;;;;;;;;;4887377;29;20060;-82
2021/12/23 07:22:15;;;;;;;24.45;15.45;;;;;;;;;;4882042;29;20044;-83
2021/12/23 07:24:44;;;;;;;24.80;15.32;;;;;;;;;;4896986;28;20048;-83
2021/12/23 07:27:10;;;;;;;27.98;17.70;;;;;;;;;;4892957;29;20119;-83
2021/12/23 07:29:38;;;;;;;22.70;15.05;;;;;;;;;;4909068;29;20100;-82
2021/12/23 07:32:06;;;;;;;25.77;15.02;;;;;;;;;;4886258;28;20595;-83
2021/12/23 07:34:34;;;;;;;25.60;14.75;;;;;;;;;;4881274;29;20045;-82
2021/12/23 07:37:00;;;;;;;18.38;12.25;;;;;;;;;;4906244;29;20040;-83
2021/12/23 07:39:26;;;;;;;;;;;;;;;;;;4887556;29;20481;-82
2021/12/23 07:41:54;;;;;;;22.27;15.40;;;;;;;;;;4889714;28;19916;-83
2021/12/23 07:44:20;;;;;;;28.63;15.73;;;;;;;;;;4897528;29;20033;-83
2021/12/23 07:46:49;;;;;;;26.73;16.58;;;;;;;;;;4875777;28;20040;-82
2021/12/23 07:49:17;;;;;;;25.23;16.23;;;;;;;;;;4891159;29;20052;-83
2021/12/23 07:51:45;;;;;;;26.27;13.65;;;;;;;;;;4883263;29;20036;-82
2021/12/23 07:54:13;;;;;;;21.20;13.07;;;;;;;;;;4881780;29;20044;-83
2021/12/23 07:56:41;;;;;;;22.13;13.80;;;;;;;;;;4890600;29;20040;-83
2021/12/23 07:59:07;;;;;;;17.65;11.93;;;;;;;;;;4890812;29;20449;-83
2021/12/23 08:01:41;;;;;;;21.10;12.73;;;;;;;;;;4905133;28;20040;-83
2021/12/23 08:04:08;;;;;;;23.33;14.85;;;;;;;;;;4883660;29;20548;-83
2021/12/23 08:06:36;;;;;;;24.33;14.35;;;;;;;;;;4913204;29;20104;-82
2021/12/23 08:09:03;;;;;;;24.35;13.77;;;;;;;;;;4909411;29;20593;-83
2021/12/23 08:11:31;;;;;;;18.60;11.68;;;;;;;;;;4873701;29;20087;-83
2021/12/23 08:14:00;;;;;;;22.88;14.65;;;;;;;;;;4893274;29;20123;-83
2021/12/23 08:16:28;;;;;;;25.08;15.55;;;;;;;;;;4882106;28;20120;-83
2021/12/23 08:18:55;;;;;;;24.55;15.07;;;;;;;;;;4905877;29;20099;-82
2021/12/23 08:21:22;;;;;;;21.42;13.63;;;;;;;;;;4885301;28;20363;-82
2021/12/23 08:23:51;;;;;;;22.40;13.38;;;;;;;;;;4887142;29;20493;-82
2021/12/23 08:26:22;;;;;;;23.48;15.25;;;;;;;;;;4897333;29;20041;-83
2021/12/23 08:28:49;;;;;;;22.15;14.45;;;;;;;;;;4889541;29;20314;-83
2021/12/23 08:31:20;;;;;;;26.52;15.48;;;;;;;;;;4875852;29;20096;-84
2021/12/23 08:33:52;;;;;;;17.58;12.05;;;;;;;;;;4858725;29;20057;-85
2021/12/23 08:36:20;;;;;;;22.88;13.57;;;;;;;;;;4839413;29;20376;-83
2021/12/23 08:38:47;;;;;;;20.23;12.90;;;;;;;;;;4836198;29;20034;-83
2021/12/23 08:41:13;;;;;;;21.23;12.65;;;;;;;;;;4851233;29;20061;-83
2021/12/23 08:43:41;;;;;;;22.33;13.52;;;;;;;;;;4865508;29;20044;-82
2021/12/23 08:46:07;;;;;;;20.70;12.60;;;;;;;;;;4845963;29;20041;-83
2021/12/23 08:48:35;;;;;;;21.48;12.82;;;;;;;;;;4847576;29;20513;-83
2021/12/23 08:51:04;;;;;;;18.33;10.88;;;;;;;;;;4852929;29;20037;-82
2021/12/23 08:53:33;;;;;;;17.95;10.77;;;;;;;;;;4844239;29;20105;-83
2021/12/23 08:55:59;;;;;;;23.55;14.88;;;;;;;;;;4866303;29;20037;-82
2021/12/23 08:58:26;;;;;;;;;;;;;;;;;;4861730;29;20044;-82
2021/12/23 09:00:54;;;;;;;21.05;12.75;;;;;;;;;;4860632;29;19927;-82
2021/12/23 09:03:20;;;;;;;25.10;14.60;;;;;;;;;;4856660;29;20368;-82
2021/12/23 09:05:46;;;;;;;19.70;13.23;;;;;;;;;;4851056;29;20158;-82
2021/12/23 09:08:13;;;;;;;21.55;12.98;;;;;;;;;;4868285;29;20037;-83
2021/12/23 09:10:41;;;;;;;20.13;11.98;;;;;;;;;;4870419;29;20118;-80
2021/12/23 09:13:09;;;;;;;16.95;10.63;;;;;;;;;;4847359;29;20041;-82
2021/12/23 09:15:35;;;;;;;18.27;11.48;;;;;;;;;;4852718;29;20033;-83
2021/12/23 09:18:03;;;;;;;22.63;12.85;;;;;;;;;;4848004;29;20042;-85
2021/12/23 09:20:30;;;;;;;19.35;12.65;;;;;;;;;;4865692;29;20153;-83
2021/12/23 09:22:57;;;;;;;22.17;12.88;;;;;;;;;;4846455;29;20103;-84
2021/12/23 09:25:29;;;;;;;17.95;11.23;;;;;;;;;;4843565;29;20104;-82
2021/12/23 09:28:06;;;;;;;21.83;12.68;;;;;;;;;;4835601;29;20042;-81
2021/12/23 09:33:23;;;;;;;24.05;13.85;;;;;;;;;;4863733;29;20055;-81
2021/12/23 09:37:40;;;;;;;30.52;16.55;;;;;;;;;;5084326;28;20378;-82
2021/12/23 09:40:08;;;;;;;31.08;17.20;;;;;;;;;;5072388;28;20478;-83
2021/12/23 09:42:37;;;;;;;27.95;16.40;;;;;;;;;;5064080;28;20067;-87
2021/12/23 09:45:10;;;;;;;26.77;17.02;;;;;;;;;;5073967;28;20123;-85
2021/12/23 09:47:41;;;;;;;26.05;16.50;;;;;;;;;;5080832;28;20020;-82
2021/12/23 09:50:10;;;;;;;29.92;18.00;;;;;;;;;;5051293;28;20114;-84
2021/12/23 09:52:40;;;;;;;29.40;18.10;;;;;;;;;;5062379;28;20086;-83
2021/12/23 09:55:09;;;;;;;26.00;18.17;;;;;;;;;;5075680;28;20249;-82
2021/12/23 09:57:37;;;;;;;25.58;17.92;;;;;;;;;;5076138;28;20078;-84
2021/12/23 10:00:09;;;;;;;27.88;18.55;;;;;;;;;;5065078;28;20116;-82
2021/12/23 10:02:40;;;;;;;32.33;19.60;;;;;;;;;;5050784;28;20028;-83
2021/12/23 10:05:07;;;;;;;25.88;16.58;;;;;;;;;;5068988;28;20639;-83
2021/12/23 10:07:35;;;;;;;28.25;18.67;;;;;;;;;;5067576;28;20025;-83
2021/12/23 10:10:17;;;;;;;29.08;18.90;;;;;;;;;;5066194;28;20040;-83
2021/12/23 10:13:11;;;;;;;27.23;18.33;;;;;;;;;;5060014;28;20028;-84
2021/12/23 10:28:47;;;;;;;28.73;17.23;;;;;;;;;;5072097;28;20490;-84
2021/12/23 10:30:17;;;;;;;31.60;17.83;;;;;;;;;;5051866;28;20119;-81
2021/12/23 10:38:19;;;;;;;25.70;16.35;;;;;;;;;;5055510;28;20138;-82
2021/12/23 10:40:49;;;;;;;28.40;17.65;;;;;;;;;;5069461;28;20059;-81
2021/12/23 10:43:35;;;;;;;28.75;17.98;;;;;;;;;;5060629;28;20025;-81
2021/12/23 10:46:06;;;;;;;28.40;16.88;;;;;;;;;;5061132;28;20112;-83
2021/12/23 10:48:35;;;;;;;27.50;17.02;;;;;;;;;;5055301;28;20021;-81
2021/12/23 10:51:19;;;;;;;24.60;15.23;;;;;;;;;;5041233;28;20047;-81
2021/12/23 10:54:08;;;;;;;24.42;15.23;;;;;;;;;;5047559;28;20040;-82
2021/12/23 10:59:30;;;;;;;29.95;14.90;;;;;;;;;;5050089;28;20402;-81
2021/12/23 11:02:20;;;;;;;24.95;16.08;;;;;;;;;;5053982;28;20025;-81
2021/12/23 11:05:28;;;;;;;25.88;15.98;;;;;;;;;;5049835;28;20033;-80
2021/12/23 11:08:15;;;;;;;27.27;17.45;;;;;;;;;;4967113;28;20035;-82
2021/12/23 11:41:40;;;;;;;26.40;14.55;;;;;;;;;;4949270;28;20053;-82
2021/12/23 11:44:07;;;;;;;27.17;15.00;;;;;;;;;;4934143;28;20039;-81
2021/12/23 11:46:49;;;;;;;25.48;14.43;;;;;;;;;;4951878;28;20047;-82
2021/12/23 11:49:20;;;;;;;26.10;14.82;;;;;;;;;;4944016;28;20031;-84
2021/12/23 11:51:55;;;;;;;29.08;15.48;;;;;;;;;;4960084;28;20042;-82
2021/12/23 11:54:30;;;;;;;29.25;14.80;;;;;;;;;;4942503;28;20071;-82
2021/12/23 11:57:09;;;;;;;29.63;14.50;;;;;;;;;;4952423;28;20046;-80
2021/12/23 11:59:37;;;;;;;25.60;14.20;;;;;;;;;;4963923;28;20042;-81
2021/12/23 12:02:25;;;;;;;25.75;13.77;;;;;;;;;;4939526;28;20489;-82
2021/12/23 12:04:59;;;;;;;30.70;14.02;;;;;;;;;;4966974;28;20564;-82
2021/12/23 12:07:28;;;;;;;50.45;15.32;;;;;;;;;;4945223;28;20075;-81
2021/12/23 12:10:03;;;;;;;26.08;13.75;;;;;;;;;;4943480;28;20034;-81
2021/12/23 12:12:33;;;;;;;25.27;13.77;;;;;;;;;;4982167;28;20073;-81
2021/12/23 12:15:00;;;;;;;22.88;13.00;;;;;;;;;;5009405;28;20037;-81
2021/12/23 12:17:33;;;;;;;23.83;13.13;;;;;;;;;;5010266;28;20045;-81
2021/12/23 12:20:50;;;;;;;22.63;12.77;;;;;;;;;;5010427;28;20037;-81
2021/12/23 12:23:32;;;;;;;24.98;13.80;;;;;;;;;;4978066;28;20125;-81
2021/12/23 12:26:09;;;;;;;29.50;13.82;;;;;;;;;;4985888;28;20051;-80
2021/12/23 12:28:41;;;;;;;42.05;17.50;;;;;;;;;;4969654;28;20058;-81
2021/12/23 12:31:15;;;;;;;27.35;13.57;;;;;;;;;;4965927;28;20039;-81
2021/12/23 12:33:52;;;;;;;25.52;11.98;;;;;;;;;;4967001;28;20046;-81
2021/12/23 12:36:21;;;;;;;21.95;12.40;;;;;;;;;;4971059;28;20044;-80
2021/12/23 12:38:51;;;;;;;17.95;11.23;;;;;;;;;;4981951;28;20046;-79
2021/12/23 12:41:29;;;;;;;26.02;12.35;;;;;;;;;;4985825;28;20184;-78
2021/12/23 12:49:28;;;;;;;26.80;12.35;;;;;;;;;;5002564;28;20052;-79
2021/12/23 12:52:20;;;;;;;26.52;13.57;;;;;;;;;;4989378;28;20029;-81
2021/12/23 12:54:50;;;;;;;20.63;12.07;;;;;;;;;;4998463;28;20048;-78
2021/12/23 12:57:18;;;;;;;25.88;13.70;;;;;;;;;;5017020;28;20033;-79
2021/12/23 12:59:48;;;;;;;23.67;13.25;;;;;;;;;;4993496;28;20045;-79
2021/12/23 13:02:31;;;;;;;24.27;12.50;;;;;;;;;;4989801;28;20125;-81
2021/12/23 13:08:07;;;;;;;18.92;11.18;;;;;;;;;;5692651;23;20061;-84
2021/12/23 13:10:33;;;;;;;23.67;12.95;;;;;;;;;;5795108;22;20122;-83
2021/12/23 13:18:23;;;;;;;19.92;12.85;;;;;;;;;;5121384;22;20086;-84
2021/12/23 13:20:55;;;;;;;21.65;12.43;;;;;;;;;;5026483;28;20036;-83
2021/12/23 13:23:40;;;;;;;24.80;13.30;;;;;;;;;;5057888;28;20438;-85
2021/12/23 13:26:20;;;;;;;23.60;12.43;;;;;;;;;;5061542;28;20039;-82
2021/12/23 13:29:00;;;;;;;23.77;11.63;;;;;;;;;;5049534;28;20431;-83
2021/12/23 13:31:38;;;;;;;24.25;11.85;;;;;;;;;;5052388;28;20029;-83
2021/12/23 13:34:12;;;;;;;23.20;12.05;;;;;;;;;;5043470;28;20427;-84
2021/12/23 13:36:57;;;;;;;27.63;12.90;;;;;;;;;;5049522;28;20082;-83
2021/12/23 13:39:37;;;;;;;25.13;14.15;;;;;;;;;;5049500;28;20039;-83
2021/12/23 13:42:13;;;;;;;25.10;12.38;;;;;;;;;;5023416;28;20036;-83
2021/12/23 13:44:53;;;;;;;21.70;11.65;;;;;;;;;;5047473;28;20044;-83
2021/12/23 13:47:26;;;;;;;25.00;12.27;;;;;;;;;;5050993;28;20048;-83
2021/12/23 13:49:57;;;;;;;20.13;11.23;;;;;;;;;;5067464;28;20062;-84
2021/12/23 13:52:34;;;;;;;20.35;13.18;;;;;;;;;;5042030;28;20071;-83
2021/12/23 13:55:12;;;;;;;27.73;15.90;;;;;;;;;;5049579;28;20032;-83
2021/12/23 13:57:46;;;;;;;25.38;12.63;;;;;;;;;;5057880;28;20038;-84
2021/12/23 14:00:32;;;;;;;24.45;13.13;;;;;;;;;;5062797;28;20062;-83
2021/12/23 14:03:08;;;;;;;27.42;16.23;;;;;;;;;;5031695;28;20037;-83
2021/12/23 14:05:40;;;;;;;29.98;13.07;;;;;;;;;;5067035;28;20556;-83
2021/12/23 14:08:10;;;;;;;27.60;13.98;;;;;;;;;;5044729;28;20032;-83
2021/12/23 14:10:39;;;;;;;25.73;14.32;;;;;;;;;;5048869;28;20151;-82
2021/12/23 14:13:11;;;;;;;25.02;13.38;;;;;;;;;;5023812;28;20124;-83
2021/12/23 14:15:49;;;;;;;20.95;11.75;;;;;;;;;;5042788;28;20032;-83
2021/12/23 14:24:15;;;;;;;25.98;13.07;;;;;;;;;;4985345;28;20037;-83
2021/12/23 14:26:44;;;;;;;27.75;13.85;;;;;;;;;;4972898;28;20154;-83
2021/12/23 14:29:17;;;;;;;21.05;11.13;;;;;;;;;;4970467;28;20038;-84
2021/12/23 14:31:50;;;;;;;23.27;11.98;;;;;;;;;;4979784;28;20047;-85
2021/12/23 14:34:27;;;;;;;26.73;12.95;;;;;;;;;;4973840;28;20048;-84
2021/12/23 14:37:02;;;;;;;22.80;12.10;;;;;;;;;;4981162;28;20042;-84
2021/12/23 14:39:39;;;;;;;24.85;11.73;;;;;;;;;;4973192;28;20042;-84
2021/12/23 14:42:20;;;;;;;22.95;11.70;;;;;;;;;;4976692;28;20607;-84
2021/12/23 14:45:01;;;;;;;21.75;12.13;;;;;;;;;;4985512;28;20131;-84
2021/12/23 14:47:33;;;;;;;24.00;11.27;;;;;;;;;;4973390;28;20101;-84
2021/12/23 14:52:42;;;;;;;19.98;11.07;;;;;;;;;;4988694;28;20504;-84
2021/12/23 14:55:14;;;;;;;22.85;12.15;;;;;;;;;;4981775;28;20126;-84
2021/12/23 14:57:55;;;;;;;25.67;11.63;;;;;;;;;;4995941;28;20046;-83
2021/12/23 15:00:38;;;;;;;22.25;12.05;;;;;;;;;;5034338;28;20084;-84
2021/12/23 15:03:08;;;;;;;19.42;11.60;;;;;;;;;;5034256;28;20119;-84
2021/12/23 15:05:42;;;;;;;24.48;10.27;;;;;;;;;;5051722;28;20405;-85
2021/12/23 15:08:31;;;;;;;20.00;12.02;;;;;;;;;;5050438;28;20060;-84
2021/12/23 15:11:11;;;;;;;22.42;10.98;;;;;;;;;;5041055;28;20277;-84
2021/12/23 15:13:45;;;;;;;27.42;12.05;;;;;;;;;;5030979;28;20034;-85
2021/12/23 15:16:30;;;;;;;25.38;10.82;;;;;;;;;;5031336;28;20391;-84
2021/12/23 15:19:34;;;;;;;25.95;11.85;;;;;;;;;;5041648;28;20040;-84
2021/12/23 15:22:16;;;;;;;25.40;11.85;;;;;;;;;;5050077;28;20135;-85
2021/12/23 15:24:45;;;;;;;23.42;11.43;;;;;;;;;;5021651;28;20038;-84
2021/12/23 15:58:24;;;;;;;32.17;18.13;;;;;;;;;;5091456;23;20063;-85
2021/12/23 16:00:52;;;;;;;37.75;19.60;;;;;;;;;;5048155;28;20079;-86
2021/12/23 16:03:20;;;;;;;35.20;19.58;;;;;;;;;;5043233;28;20031;-85
2021/12/23 16:08:14;;;;;;;41.30;17.65;;;;;;;;;;4866727;28;20051;-85
2021/12/23 16:10:58;;;;;;;;;;;;;;;;;;548023;29;146027608;-84
2021/12/23 16:13:25;;;;;;;33.13;18.98;;;;;;;;;;4882565;29;19923;-84
2021/12/23 16:17:04;;;;;;;;;;;;;;;;;;1319236;29;177698361;-83
2021/12/23 16:19:31;;;;;;;36.75;17.48;;;;;;;;;;4923578;28;19918;-84
2021/12/23 16:21:59;;;;;;;33.05;17.40;;;;;;;;;;4933380;28;20039;-84
2021/12/23 16:24:27;;;;;;;37.45;17.92;;;;;;;;;;4934845;28;20126;-85
2021/12/23 16:26:53;;;;;;;34.42;17.85;;;;;;;;;;4912722;28;20039;-84
2021/12/23 16:29:19;;;;;;;35.30;17.88;;;;;;;;;;4876462;29;20067;-83
2021/12/23 16:31:46;;;;;;;;;;;;;;;;;;4891040;29;20064;-84
2021/12/23 16:34:12;;;;;;;32.17;18.08;;;;;;;;;;4871953;29;19954;-83
2021/12/23 16:36:40;;;;;;;32.03;18.20;;;;;;;;;;4855895;29;20401;-83